createdAt,value
2022-11-19T00:02:24.025Z,6.63
2022-11-19T00:04:52.780Z,7.38
2022-11-19T00:07:20.546Z,7.30
2022-11-19T00:09:48.508Z,6.72
2022-11-19T00:12:35.168Z,6.95
2022-11-19T00:15:03.417Z,6.93
2022-11-19T00:17:31.494Z,6.15
2022-11-19T00:19:59.275Z,6.85
2022-11-19T00:22:27.587Z,6.28
2022-11-19T00:24:56.256Z,6.43
2022-11-19T00:27:24.228Z,6.80
2022-11-19T00:29:52.092Z,6.57
2022-11-19T00:32:20.121Z,6.75
2022-11-19T00:34:48.005Z,6.68
2022-11-19T00:37:16.327Z,6.72
2022-11-19T00:39:44.248Z,6.50
2022-11-19T00:42:12.096Z,6.38
2022-11-19T00:44:40.348Z,7.82
2022-11-19T00:47:08.162Z,7.63
2022-11-19T00:49:36.007Z,7.75
2022-11-19T00:52:04.739Z,7.65
2022-11-19T00:54:33.639Z,8.65
2022-11-19T00:57:01.447Z,6.82
2022-11-19T00:59:29.701Z,8.32
2022-11-19T01:01:58.072Z,8.60
2022-11-19T01:04:25.936Z,9.38
2022-11-19T01:06:54.307Z,8.45
2022-11-19T01:09:22.405Z,8.23
2022-11-19T01:11:50.383Z,7.93
2022-11-19T01:14:18.340Z,8.18
2022-11-19T01:16:46.172Z,8.15
2022-11-19T01:19:16.967Z,8.45
2022-11-19T01:21:45.903Z,8.10
2022-11-19T01:24:13.906Z,7.97
2022-11-19T01:26:45.710Z,8.48
2022-11-19T01:29:14.599Z,7.68
2022-11-19T01:31:42.450Z,8.88
2022-11-19T01:34:10.439Z,7.93
2022-11-19T01:36:38.469Z,8.55
2022-11-19T01:39:06.367Z,8.20
2022-11-19T01:41:34.642Z,8.32
2022-11-19T01:44:08.350Z,7.95
2022-11-19T01:46:38.725Z,8.82
2022-11-19T01:49:20.725Z,8.70
2022-11-19T01:52:00.824Z,8.32
2022-11-19T01:54:44.752Z,8.77
2022-11-19T01:57:16.704Z,9.32
2022-11-19T01:59:46.847Z,7.80
2022-11-19T02:02:15.585Z,9.02
2022-11-19T02:04:44.043Z,8.73
2022-11-19T02:07:13.702Z,8.75
2022-11-19T02:09:42.604Z,8.50
2022-11-19T02:12:52.685Z,7.97
2022-11-19T02:15:36.993Z,7.93
2022-11-19T02:18:30.516Z,8.85
2022-11-19T02:21:16.074Z,8.40
2022-11-19T02:24:26.379Z,9.10
2022-11-19T02:27:24.281Z,8.48
2022-11-19T02:30:18.793Z,8.35
2022-11-19T02:33:22.777Z,9.40
2022-11-19T02:36:41.207Z,9.27
2022-11-19T02:39:51.361Z,8.55
2022-11-19T02:42:44.632Z,8.75
2022-11-19T02:45:31.001Z,9.27
2022-11-19T02:48:25.354Z,8.38
2022-11-19T02:50:58.232Z,9.00
2022-11-19T02:53:26.519Z,8.57
2022-11-19T02:56:12.509Z,8.80
2022-11-19T02:59:11.388Z,8.52
2022-11-19T03:02:19.301Z,8.65
2022-11-19T03:04:47.572Z,8.18
2022-11-19T03:07:19.781Z,8.65
2022-11-19T03:10:01.234Z,7.97
2022-11-19T03:12:53.551Z,9.35
2022-11-19T03:15:53.430Z,8.88
2022-11-19T03:19:06.225Z,9.57
2022-11-19T03:22:00.737Z,8.65
2022-11-19T03:24:54.690Z,7.82
2022-11-19T03:27:44.165Z,9.80
2022-11-19T03:30:14.842Z,8.77
2022-11-19T03:33:10.990Z,8.65
2022-11-19T03:35:52.156Z,8.90
2022-11-19T03:38:30.532Z,9.77
2022-11-19T03:41:01.514Z,9.32
2022-11-19T03:43:36.632Z,9.15
2022-11-19T03:46:10.238Z,9.25
2022-11-19T03:48:40.429Z,9.00
2022-11-19T03:51:19.079Z,10.00
2022-11-19T03:53:47.910Z,8.20
2022-11-19T03:56:22.178Z,8.27
2022-11-19T03:58:50.363Z,8.57
2022-11-19T04:01:18.309Z,9.02
2022-11-19T04:04:06.230Z,9.20
2022-11-19T04:06:34.360Z,8.85
2022-11-19T04:09:02.275Z,8.40
2022-11-19T04:11:31.662Z,8.80
2022-11-19T04:13:59.689Z,9.50
2022-11-19T04:16:27.673Z,8.82
2022-11-19T04:18:56.034Z,10.10
2022-11-19T04:21:24.123Z,8.77
2022-11-19T04:23:51.976Z,8.80
2022-11-19T04:26:19.982Z,9.57
2022-11-19T04:28:47.945Z,10.43
2022-11-19T04:31:17.975Z,10.35
2022-11-19T04:33:46.436Z,10.20
2022-11-19T04:36:14.561Z,9.13
2022-11-19T04:38:42.554Z,9.80
2022-11-19T04:41:11.166Z,8.82
2022-11-19T04:43:39.196Z,10.05
2022-11-19T04:46:07.082Z,10.02
2022-11-19T04:48:35.278Z,10.55
2022-11-19T04:51:04.737Z,10.27
2022-11-19T04:53:32.611Z,10.02
2022-11-19T04:56:03.701Z,10.13
2022-11-19T04:58:31.638Z,8.95
2022-11-19T05:00:59.441Z,7.07
2022-11-19T05:03:27.415Z,10.80
2022-11-19T05:05:55.883Z,9.85
2022-11-19T05:08:24.203Z,7.70
2022-11-19T05:10:52.299Z,9.25
2022-11-19T05:13:20.474Z,10.77
2022-11-19T05:15:48.335Z,8.70
2022-11-19T05:18:16.417Z,9.60
2022-11-19T05:20:44.354Z,9.68
2022-11-19T05:23:12.821Z,9.80
2022-11-19T05:25:40.703Z,9.82
2022-11-19T05:28:08.669Z,9.98
2022-11-19T05:30:36.486Z,8.63
2022-11-19T05:33:04.471Z,10.30
2022-11-19T05:35:32.955Z,9.80
2022-11-19T05:38:00.974Z,6.82
2022-11-19T05:40:29.162Z,8.95
2022-11-19T05:43:07.296Z,7.10
2022-11-19T05:45:35.507Z,8.18
2022-11-19T05:48:03.817Z,9.23
2022-11-19T05:50:31.732Z,8.05
2022-11-19T05:53:05.417Z,9.55
2022-11-19T05:55:33.519Z,9.52
2022-11-19T05:58:01.466Z,9.10
2022-11-19T06:00:29.531Z,9.38
2022-11-19T06:02:57.788Z,9.45
2022-11-19T06:05:25.811Z,8.82
2022-11-19T06:07:53.645Z,8.02
2022-11-19T06:10:21.896Z,9.85
2022-11-19T06:12:50.109Z,8.98
2022-11-19T06:15:18.439Z,7.72
2022-11-19T06:17:46.442Z,9.55
2022-11-19T06:20:14.412Z,9.60
2022-11-19T06:22:42.388Z,9.60
2022-11-19T06:25:10.514Z,8.75
2022-11-19T06:27:38.389Z,9.65
2022-11-19T06:30:08.013Z,9.25
2022-11-19T06:32:36.220Z,8.57
2022-11-19T06:35:04.633Z,9.25
2022-11-19T06:37:32.925Z,8.80
2022-11-19T06:40:00.875Z,9.80
2022-11-19T06:42:37.927Z,9.98
2022-11-19T06:45:09.681Z,9.07
2022-11-19T06:50:08.576Z,8.77
2022-11-19T06:52:36.979Z,8.43
2022-11-19T06:55:05.626Z,7.55
2022-11-19T06:57:33.673Z,9.10
2022-11-19T07:00:01.693Z,8.38
2022-11-19T07:02:29.659Z,8.18
2022-11-19T07:04:57.828Z,9.30
2022-11-19T07:07:25.788Z,10.25
2022-11-19T07:09:53.689Z,8.77
2022-11-19T07:12:21.765Z,8.75
2022-11-19T07:14:49.549Z,9.15
2022-11-19T07:17:17.466Z,9.88
2022-11-19T07:19:45.744Z,8.95
2022-11-19T07:22:13.655Z,8.65
2022-11-19T07:24:41.616Z,8.63
2022-11-19T07:27:10.175Z,9.25
2022-11-19T07:29:38.933Z,9.05
2022-11-19T07:32:06.987Z,10.10
2022-11-19T07:34:35.558Z,9.73
2022-11-19T07:37:03.832Z,9.80
2022-11-19T07:39:31.961Z,10.15
2022-11-19T07:42:18.781Z,4.15
2022-11-19T07:44:54.980Z,10.38
2022-11-19T07:47:24.090Z,9.98
2022-11-19T07:49:52.230Z,9.07
2022-11-19T07:52:21.211Z,9.38
2022-11-19T07:54:49.611Z,11.25
2022-11-19T07:57:17.520Z,10.38
2022-11-19T07:59:45.551Z,9.07
2022-11-19T08:02:15.306Z,10.70
2022-11-19T08:04:46.658Z,12.55
2022-11-19T08:07:14.702Z,14.18
2022-11-19T08:09:43.266Z,9.70
2022-11-19T08:12:11.339Z,12.55
2022-11-19T08:14:39.336Z,13.05
2022-11-19T08:17:26.737Z,18.83
2022-11-19T08:19:54.774Z,12.05
2022-11-19T08:22:22.811Z,12.43
2022-11-19T08:24:51.641Z,12.43
2022-11-19T08:27:19.738Z,9.30
2022-11-19T08:29:48.103Z,11.48
2022-11-19T08:32:16.364Z,11.98
2022-11-19T08:34:44.425Z,7.15
2022-11-19T08:37:13.698Z,12.90
2022-11-19T08:39:41.822Z,12.70
2022-11-19T08:42:29.022Z,11.73
2022-11-19T08:44:58.794Z,12.90
2022-11-19T08:47:26.921Z,12.57
2022-11-19T08:49:54.855Z,10.88
2022-11-19T08:52:23.476Z,12.93
2022-11-19T08:54:52.207Z,16.88
2022-11-19T08:57:20.098Z,10.50
2022-11-19T08:59:48.081Z,10.20
2022-11-19T09:02:16.197Z,8.40
2022-11-19T09:04:44.093Z,9.90
2022-11-19T09:07:12.158Z,10.32
2022-11-19T09:09:40.331Z,10.15
2022-11-19T09:12:09.041Z,13.38
2022-11-19T09:14:38.167Z,11.90
2022-11-19T09:17:06.234Z,11.63
2022-11-19T09:19:34.000Z,11.45
2022-11-19T09:22:02.540Z,11.55
2022-11-19T09:24:30.450Z,11.07
2022-11-19T09:27:02.087Z,10.02
2022-11-19T09:29:30.855Z,10.52
2022-11-19T09:31:59.022Z,12.73
2022-11-19T09:34:26.911Z,9.98
2022-11-19T09:36:55.923Z,11.48
2022-11-19T09:39:25.438Z,12.65
2022-11-19T09:42:22.737Z,9.05
2022-11-19T09:45:19.183Z,10.90
2022-11-19T09:48:23.675Z,11.98
2022-11-19T09:51:00.325Z,14.48
2022-11-19T09:53:36.118Z,12.82
2022-11-19T09:56:06.022Z,12.00
2022-11-19T09:58:43.567Z,11.95
2022-11-19T10:01:19.602Z,12.50
2022-11-19T10:03:54.176Z,10.45
2022-11-19T10:06:43.962Z,11.63
2022-11-19T10:09:44.658Z,12.02
2022-11-19T10:13:12.106Z,13.23
2022-11-19T10:15:51.536Z,8.32
2022-11-19T10:19:27.124Z,11.48
2022-11-19T10:22:22.778Z,9.90
2022-11-19T10:25:20.742Z,11.60
2022-11-19T10:28:02.268Z,11.30
2022-11-19T10:30:31.372Z,12.10
2022-11-19T10:33:28.178Z,12.00
2022-11-19T10:36:04.915Z,13.57
2022-11-19T10:38:49.939Z,8.70
2022-11-19T10:41:32.089Z,12.45
2022-11-19T10:44:43.343Z,15.33
2022-11-19T10:51:44.847Z,11.50
2022-11-19T10:54:28.008Z,12.30
2022-11-19T10:56:58.243Z,12.05
2022-11-19T10:59:30.603Z,11.25
2022-11-19T11:02:15.830Z,12.82
2022-11-19T11:05:07.332Z,12.32
2022-11-19T11:07:58.048Z,11.68
2022-11-19T11:10:36.326Z,13.10
2022-11-19T11:13:49.433Z,16.42
2022-11-19T11:16:22.305Z,10.52
2022-11-19T11:18:55.382Z,9.68
2022-11-19T11:21:38.573Z,10.57
2022-11-19T11:24:08.508Z,10.38
2022-11-19T11:26:38.015Z,11.63
2022-11-19T11:29:15.284Z,11.35
2022-11-19T11:31:47.839Z,10.55
2022-11-19T11:34:36.927Z,10.30
2022-11-19T11:37:08.817Z,9.85
2022-11-19T11:39:44.856Z,11.07
2022-11-19T11:42:19.667Z,9.00
2022-11-19T11:45:03.152Z,10.23
2022-11-19T11:47:38.118Z,13.55
2022-11-19T11:50:22.553Z,10.05
2022-11-19T11:52:54.955Z,12.07
2022-11-19T11:55:23.798Z,10.68
2022-11-19T11:58:05.145Z,11.80
2022-11-19T12:03:21.132Z,11.40
2022-11-19T12:06:09.315Z,10.85
2022-11-19T12:08:51.070Z,9.80
2022-11-19T12:11:58.224Z,11.63
2022-11-19T12:14:44.607Z,10.32
2022-11-19T12:17:47.794Z,10.43
2022-11-19T12:20:34.052Z,13.15
2022-11-19T12:23:20.768Z,10.98
2022-11-19T12:26:12.825Z,10.02
2022-11-19T12:28:59.261Z,9.82
2022-11-19T12:31:29.886Z,11.07
2022-11-19T12:34:53.881Z,11.23
2022-11-19T12:37:38.563Z,11.38
2022-11-19T12:40:49.694Z,10.15
2022-11-19T12:44:04.002Z,8.90
2022-11-19T12:46:50.652Z,8.13
2022-11-19T12:49:33.719Z,8.40
2022-11-19T12:52:10.909Z,8.02
2022-11-19T12:54:44.704Z,7.55
2022-11-19T12:57:48.840Z,8.55
2022-11-19T13:00:24.158Z,7.88
2022-11-19T13:03:15.289Z,8.60
2022-11-19T13:06:05.246Z,8.97
2022-11-19T13:08:45.928Z,8.68
2022-11-19T13:11:43.273Z,8.85
2022-11-19T13:14:35.902Z,8.50
2022-11-19T13:17:07.764Z,9.50
2022-11-19T13:19:39.867Z,9.07
2022-11-19T13:22:20.522Z,10.10
2022-11-19T13:25:12.585Z,9.50
2022-11-19T13:30:22.252Z,11.75
2022-11-19T13:33:20.303Z,12.93
2022-11-19T13:36:08.013Z,8.98
2022-11-19T13:38:49.233Z,11.48
2022-11-19T13:41:34.225Z,9.95
2022-11-19T13:44:20.932Z,9.88
2022-11-19T13:46:59.121Z,6.55
2022-11-19T13:49:51.198Z,11.95
2022-11-19T13:55:01.131Z,11.48
2022-11-19T13:57:42.880Z,10.25
2022-11-19T14:00:26.764Z,9.40
2022-11-19T14:03:22.290Z,10.95
2022-11-19T14:06:33.262Z,10.35
2022-11-19T14:09:23.870Z,10.68
2022-11-19T14:12:27.978Z,11.13
2022-11-19T14:15:38.433Z,11.02
2022-11-19T14:19:11.006Z,9.02
2022-11-19T14:24:46.403Z,8.10
2022-11-19T14:27:29.317Z,10.18
2022-11-19T14:30:16.305Z,9.82
2022-11-19T14:32:52.894Z,9.65
2022-11-19T14:35:27.282Z,10.10
2022-11-19T14:38:13.967Z,9.85
2022-11-19T14:40:43.951Z,10.35
2022-11-19T14:43:30.444Z,9.77
2022-11-19T14:46:08.879Z,8.85
2022-11-19T14:48:40.282Z,10.52
2022-11-19T14:51:15.369Z,11.43
2022-11-19T14:54:16.344Z,11.80
2022-11-19T14:56:49.750Z,11.27
2022-11-19T14:59:22.919Z,10.50
2022-11-19T15:01:58.778Z,20.92
2022-11-19T15:04:37.034Z,23.38
2022-11-19T15:07:14.370Z,16.33
2022-11-19T15:10:10.435Z,13.75
2022-11-19T15:12:43.999Z,11.60
2022-11-19T15:15:21.235Z,11.75
2022-11-19T15:18:02.385Z,12.93
2022-11-19T15:21:27.573Z,11.45
2022-11-19T15:24:57.483Z,11.60
2022-11-19T15:28:18.693Z,11.80
2022-11-19T15:31:04.036Z,12.38
2022-11-19T15:34:20.827Z,12.00
2022-11-19T15:36:55.765Z,12.95
2022-11-19T15:39:36.577Z,15.85
2022-11-19T15:42:12.935Z,17.30
2022-11-19T15:44:59.840Z,19.33
2022-11-19T15:47:41.118Z,20.45
2022-11-19T15:50:24.227Z,18.15
2022-11-19T15:53:22.602Z,14.05
2022-11-19T15:56:03.909Z,13.98
2022-11-19T15:58:41.488Z,14.95
2022-11-19T16:01:15.023Z,15.40
2022-11-19T16:03:43.162Z,16.08
2022-11-19T16:06:24.083Z,18.40
2022-11-19T16:08:55.220Z,20.43
2022-11-19T16:11:47.637Z,20.67
2022-11-19T16:14:44.110Z,22.33
2022-11-19T16:17:39.870Z,23.00
2022-11-19T16:20:11.636Z,22.42
2022-11-19T16:23:04.334Z,21.20
2022-11-19T16:25:38.136Z,20.40
2022-11-19T16:28:27.995Z,20.02
2022-11-19T16:31:03.085Z,21.55
2022-11-19T16:33:33.609Z,21.77
2022-11-19T16:36:20.208Z,25.08
2022-11-19T16:38:52.392Z,29.10
2022-11-19T16:41:44.093Z,25.10
2022-11-19T16:44:17.139Z,33.22
2022-11-19T16:46:45.997Z,28.92
2022-11-19T16:49:42.942Z,28.52
2022-11-19T16:52:12.173Z,34.15
2022-11-19T16:54:51.736Z,22.10
2022-11-19T16:57:24.190Z,17.38
2022-11-19T16:59:57.074Z,18.13
2022-11-19T17:02:37.588Z,16.67
2022-11-19T17:05:14.889Z,15.75
2022-11-19T17:07:50.278Z,14.88
2022-11-19T17:10:31.297Z,16.65
2022-11-19T17:13:04.267Z,23.85
2022-11-19T17:15:45.248Z,22.65
2022-11-19T17:18:36.841Z,22.08
2022-11-19T17:21:21.299Z,20.30
2022-11-19T17:23:51.634Z,21.38
2022-11-19T17:26:25.969Z,22.55
2022-11-19T17:29:22.822Z,26.02
2022-11-19T17:31:57.147Z,29.45
2022-11-19T17:34:44.524Z,30.00
2022-11-19T17:37:12.782Z,57.45
2022-11-19T17:39:40.827Z,36.47
2022-11-19T17:42:29.499Z,47.42
2022-11-19T17:44:57.747Z,37.25
2022-11-19T17:47:25.908Z,32.15
2022-11-19T17:49:54.572Z,30.88
2022-11-19T17:52:24.364Z,30.63
2022-11-19T17:54:56.524Z,28.40
2022-11-19T17:57:25.051Z,31.70
2022-11-19T17:59:53.027Z,44.30
2022-11-19T18:02:21.686Z,37.08
2022-11-19T18:04:50.234Z,30.58
2022-11-19T18:07:18.275Z,35.55
2022-11-19T18:09:46.523Z,33.67
2022-11-19T18:12:18.986Z,35.13
2022-11-19T18:14:47.879Z,31.17
2022-11-19T18:17:16.736Z,32.03
2022-11-19T18:19:44.738Z,39.40
2022-11-19T18:22:20.416Z,35.83
2022-11-19T18:24:50.484Z,34.67
2022-11-19T18:27:18.711Z,32.85
2022-11-19T18:29:47.032Z,27.25
2022-11-19T18:32:17.498Z,26.30
2022-11-19T18:34:46.408Z,27.60
2022-11-19T18:37:14.586Z,25.83
2022-11-19T18:39:42.579Z,26.63
2022-11-19T18:42:14.096Z,24.23
2022-11-19T18:44:43.772Z,26.83
2022-11-19T18:47:14.957Z,26.17
2022-11-19T18:49:43.010Z,24.65
2022-11-19T18:52:16.720Z,29.67
2022-11-19T18:54:45.210Z,29.25
2022-11-19T18:57:13.898Z,25.95
2022-11-19T18:59:42.248Z,24.77
2022-11-19T19:02:11.327Z,24.90
2022-11-19T19:04:39.496Z,24.23
2022-11-19T19:07:07.858Z,27.38
2022-11-19T19:09:37.668Z,25.05
2022-11-19T19:12:18.458Z,26.42
2022-11-19T19:14:51.793Z,18.33
2022-11-19T19:17:20.476Z,23.58
2022-11-19T19:19:49.945Z,21.23
2022-11-19T19:22:18.688Z,20.38
2022-11-19T19:24:47.259Z,23.70
2022-11-19T19:27:15.773Z,21.42
2022-11-19T19:29:44.438Z,20.30
2022-11-19T19:32:12.646Z,22.38
2022-11-19T19:34:41.342Z,20.70
2022-11-19T19:37:09.501Z,22.15
2022-11-19T19:39:56.245Z,24.27
2022-11-19T19:42:24.993Z,21.02
2022-11-19T19:44:53.183Z,22.27
2022-11-19T19:47:21.206Z,25.00
2022-11-19T19:49:49.732Z,24.80
2022-11-19T19:52:20.188Z,24.17
2022-11-19T19:54:48.431Z,23.48
2022-11-19T19:57:16.581Z,25.48
2022-11-19T19:59:44.697Z,23.63
2022-11-19T20:02:13.147Z,22.25
2022-11-19T20:04:42.143Z,23.13
2022-11-19T20:07:11.094Z,22.55
2022-11-19T20:09:39.295Z,22.63
2022-11-19T20:12:07.683Z,24.05
2022-11-19T20:14:36.148Z,21.52
2022-11-19T20:17:04.310Z,22.20
2022-11-19T20:19:32.633Z,22.45
2022-11-19T20:22:01.828Z,22.33
2022-11-19T20:24:30.085Z,20.90
2022-11-19T20:26:59.054Z,20.98
2022-11-19T20:29:27.381Z,21.90
2022-11-19T20:31:55.847Z,20.38
2022-11-19T20:34:24.557Z,20.58
2022-11-19T20:36:54.010Z,21.95
2022-11-19T20:39:22.731Z,22.38
2022-11-19T20:42:09.937Z,23.27
2022-11-19T20:44:38.371Z,21.98
2022-11-19T20:47:06.496Z,22.00
2022-11-19T20:49:40.892Z,20.13
2022-11-19T20:52:11.035Z,20.85
2022-11-19T20:54:39.208Z,22.95
2022-11-19T20:57:08.370Z,22.67
2022-11-19T20:59:36.732Z,23.50
2022-11-19T21:02:04.880Z,25.50
2022-11-19T21:04:36.854Z,23.55
2022-11-19T21:07:06.019Z,24.25
2022-11-19T21:09:34.472Z,24.33
2022-11-19T21:12:02.539Z,23.02
2022-11-19T21:14:30.679Z,22.25
2022-11-19T21:16:58.818Z,21.88
2022-11-19T21:19:27.116Z,20.52
2022-11-19T21:21:55.770Z,27.33
2022-11-19T21:24:23.712Z,27.48
2022-11-19T21:26:52.658Z,26.60
2022-11-19T21:29:21.235Z,62.95
2022-11-19T21:31:49.543Z,50.13
2022-11-19T21:34:20.835Z,50.28
2022-11-19T21:36:50.605Z,88.82
2022-11-19T21:39:22.031Z,48.20
2022-11-19T21:44:21.559Z,40.77
2022-11-19T21:46:50.824Z,45.67
2022-11-19T21:49:19.596Z,62.92
2022-11-19T21:51:49.327Z,102.05
2022-11-19T21:54:19.007Z,85.15
2022-11-19T21:56:47.533Z,74.75
2022-11-19T21:59:15.560Z,56.35
2022-11-19T22:01:43.824Z,55.75
2022-11-19T22:04:15.766Z,44.50
2022-11-19T22:06:43.971Z,44.00
2022-11-19T22:09:12.111Z,50.75
2022-11-19T22:11:40.327Z,50.58
2022-11-19T22:14:09.884Z,47.60
2022-11-19T22:16:40.696Z,46.53
2022-11-19T22:19:11.285Z,34.05
2022-11-19T22:21:40.543Z,33.33
2022-11-19T22:24:08.757Z,31.20
2022-11-19T22:26:37.153Z,28.97
2022-11-19T22:29:05.359Z,39.07
2022-11-19T22:31:33.552Z,37.63
2022-11-19T22:34:01.895Z,26.77
2022-11-19T22:36:31.627Z,29.50
2022-11-19T22:39:00.578Z,29.73
2022-11-19T22:41:28.798Z,29.60
2022-11-19T22:43:58.685Z,31.43
2022-11-19T22:46:28.533Z,25.13
2022-11-19T22:48:57.342Z,43.67
2022-11-19T22:51:26.424Z,45.33
2022-11-19T22:53:55.555Z,40.77
2022-11-19T22:56:27.186Z,29.33
2022-11-19T23:01:30.171Z,34.93
2022-11-19T23:04:01.889Z,28.93
2022-11-19T23:06:29.859Z,25.35
2022-11-19T23:08:57.958Z,25.50
2022-11-19T23:11:45.863Z,29.05
2022-11-19T23:14:16.983Z,25.30
2022-11-19T23:16:46.226Z,23.25
2022-11-19T23:19:19.376Z,24.77
2022-11-19T23:21:47.877Z,23.13
2022-11-19T23:24:15.753Z,20.73
2022-11-19T23:26:43.928Z,21.23
2022-11-19T23:29:11.906Z,20.57
2022-11-19T23:31:40.957Z,21.13
2022-11-19T23:34:09.283Z,20.20
2022-11-19T23:36:40.280Z,20.42
2022-11-19T23:39:14.871Z,16.85
2022-11-19T23:41:43.436Z,20.52
2022-11-19T23:44:11.534Z,18.85
2022-11-19T23:46:40.307Z,18.20
2022-11-19T23:49:08.627Z,19.05
2022-11-19T23:51:38.667Z,18.98
2022-11-19T23:54:07.883Z,19.27
2022-11-19T23:56:36.452Z,19.77
2022-11-19T23:59:06.102Z,20.80
